createdAt,value
2023-12-12T00:02:11.378Z,61.08
2023-12-12T00:04:39.951Z,61.84
2023-12-12T00:07:08.904Z,61.61
2023-12-12T00:09:36.450Z,61.60
2023-12-12T00:12:04.321Z,61.31
2023-12-12T00:14:31.932Z,60.72
2023-12-12T00:16:59.483Z,61.27
2023-12-12T00:19:27.209Z,59.18
2023-12-12T00:21:54.901Z,58.75
2023-12-12T00:24:23.770Z,57.86
2023-12-12T00:26:51.503Z,57.14
2023-12-12T00:29:19.009Z,55.85
2023-12-12T00:31:46.580Z,54.80
2023-12-12T00:34:14.198Z,54.44
2023-12-12T00:36:42.220Z,54.07
2023-12-12T00:39:09.972Z,53.96
2023-12-12T00:41:38.798Z,53.26
2023-12-12T00:44:06.287Z,52.97
2023-12-12T00:46:34.005Z,52.57
2023-12-12T00:49:01.715Z,52.41
2023-12-12T00:51:29.572Z,53.55
2023-12-12T00:53:57.316Z,53.78
2023-12-12T00:56:24.936Z,53.19
2023-12-12T00:58:53.786Z,53.86
2023-12-12T01:01:21.551Z,54.93
2023-12-12T01:03:49.228Z,55.55
2023-12-12T01:06:27.029Z,55.83
2023-12-12T01:08:56.263Z,55.54
2023-12-12T01:11:24.116Z,55.32
2023-12-12T01:13:51.664Z,54.96
2023-12-12T01:16:20.585Z,55.01
2023-12-12T01:18:48.247Z,54.92
2023-12-12T01:21:15.946Z,54.71
2023-12-12T01:23:51.432Z,54.72
2023-12-12T01:26:21.011Z,54.49
2023-12-12T01:28:48.656Z,54.52
2023-12-12T01:31:16.604Z,54.70
2023-12-12T01:33:46.365Z,55.08
2023-12-12T01:36:14.247Z,55.07
2023-12-12T01:38:41.874Z,55.21
2023-12-12T01:41:09.421Z,55.14
2023-12-12T01:43:37.306Z,55.11
2023-12-12T01:46:07.142Z,54.67
2023-12-12T01:48:35.603Z,54.80
2023-12-12T01:51:06.367Z,54.64
2023-12-12T01:53:37.181Z,54.52
2023-12-12T01:56:07.449Z,54.58
2023-12-12T01:58:36.254Z,54.78
2023-12-12T02:01:05.199Z,55.02
2023-12-12T02:03:36.464Z,55.13
2023-12-12T02:06:07.531Z,54.84
2023-12-12T02:08:35.188Z,54.99
2023-12-12T02:11:03.139Z,55.56
2023-12-12T02:13:31.235Z,55.90
2023-12-12T02:15:59.098Z,55.60
2023-12-12T02:18:26.797Z,56.26
2023-12-12T02:20:54.408Z,55.77
2023-12-12T02:23:23.241Z,55.95
2023-12-12T02:25:50.810Z,55.92
2023-12-12T02:28:18.571Z,56.59
2023-12-12T02:30:46.157Z,57.36
2023-12-12T02:33:13.965Z,58.51
2023-12-12T02:35:41.609Z,58.03
2023-12-12T02:38:09.139Z,59.14
2023-12-12T02:40:38.100Z,59.22
2023-12-12T02:43:05.781Z,59.11
2023-12-12T02:45:33.375Z,59.57
2023-12-12T02:48:01.181Z,58.97
2023-12-12T02:50:29.030Z,59.61
2023-12-12T02:52:56.659Z,59.22
2023-12-12T02:55:24.331Z,59.02
2023-12-12T02:57:53.400Z,59.21
2023-12-12T03:00:21.350Z,61.20
2023-12-12T03:02:49.072Z,64.85
2023-12-12T03:05:16.812Z,64.96
2023-12-12T03:07:44.650Z,64.88
2023-12-12T03:10:12.742Z,68.22
2023-12-12T03:12:40.486Z,68.03
2023-12-12T03:15:10.453Z,68.77
2023-12-12T03:17:41.453Z,69.99
2023-12-12T03:20:10.389Z,66.38
2023-12-12T03:22:38.053Z,68.26
2023-12-12T03:25:06.768Z,67.24
2023-12-12T03:27:34.543Z,64.61
2023-12-12T03:30:02.343Z,64.66
2023-12-12T03:32:31.367Z,63.53
2023-12-12T03:34:59.063Z,61.97
2023-12-12T03:37:27.016Z,60.75
2023-12-12T03:39:54.830Z,60.50
2023-12-12T03:42:22.622Z,61.67
2023-12-12T03:44:50.728Z,61.81
2023-12-12T03:47:18.388Z,60.89
2023-12-12T03:49:47.602Z,62.12
2023-12-12T03:52:15.397Z,62.42
2023-12-12T03:54:43.008Z,62.38
2023-12-12T03:57:10.617Z,61.42
2023-12-12T03:59:38.104Z,60.83
2023-12-12T04:02:06.070Z,59.98
2023-12-12T04:04:33.747Z,59.43
2023-12-12T04:07:04.388Z,59.76
2023-12-12T04:09:31.974Z,59.92
2023-12-12T04:11:59.494Z,59.16
2023-12-12T04:14:27.040Z,59.14
2023-12-12T04:16:54.995Z,58.74
2023-12-12T04:19:22.681Z,57.86
2023-12-12T04:21:50.279Z,57.72
2023-12-12T04:24:19.161Z,57.41
2023-12-12T04:26:46.737Z,57.19
2023-12-12T04:29:14.319Z,57.31
2023-12-12T04:31:42.378Z,57.51
2023-12-12T04:34:11.154Z,57.36
2023-12-12T04:36:38.775Z,57.36
2023-12-12T04:39:07.077Z,57.37
2023-12-12T04:41:40.786Z,57.34
2023-12-12T04:44:08.383Z,57.48
2023-12-12T04:46:36.506Z,57.74
2023-12-12T04:49:05.219Z,57.83
2023-12-12T04:51:32.806Z,58.31
2023-12-12T04:54:02.852Z,58.78
2023-12-12T04:56:30.435Z,58.52
2023-12-12T04:58:59.400Z,58.13
2023-12-12T05:01:28.231Z,58.42
2023-12-12T05:03:55.964Z,58.35
2023-12-12T05:06:23.585Z,58.64
2023-12-12T05:08:52.600Z,58.81
2023-12-12T05:11:20.142Z,59.15
2023-12-12T05:13:47.934Z,59.00
2023-12-12T05:16:24.547Z,58.92
2023-12-12T05:18:59.419Z,58.67
2023-12-12T05:21:27.511Z,58.33
2023-12-12T05:23:55.221Z,59.03
2023-12-12T05:26:22.886Z,59.29
2023-12-12T05:28:50.644Z,58.98
2023-12-12T05:31:19.580Z,59.02
2023-12-12T05:33:48.039Z,59.43
2023-12-12T05:36:15.852Z,59.09
2023-12-12T05:38:43.379Z,58.71
2023-12-12T05:41:10.878Z,58.34
2023-12-12T05:43:38.543Z,57.85
2023-12-12T05:46:06.371Z,58.18
2023-12-12T05:48:35.297Z,57.83
2023-12-12T05:51:02.870Z,57.91
2023-12-12T05:53:30.408Z,58.19
2023-12-12T05:55:57.987Z,59.42
2023-12-12T05:58:25.589Z,58.72
2023-12-12T06:00:53.531Z,59.41
2023-12-12T06:03:21.372Z,59.47
2023-12-12T06:05:50.302Z,59.41
2023-12-12T06:08:17.993Z,58.77
2023-12-12T06:10:45.951Z,58.80
2023-12-12T06:13:14.617Z,58.07
2023-12-12T06:15:42.198Z,58.33
2023-12-12T06:18:09.893Z,57.71
2023-12-12T06:20:37.867Z,57.71
2023-12-12T06:23:07.891Z,57.16
2023-12-12T06:25:35.513Z,56.91
2023-12-12T06:28:04.199Z,56.53
2023-12-12T06:30:31.802Z,56.49
2023-12-12T06:32:59.464Z,56.21
2023-12-12T06:35:27.164Z,56.42
2023-12-12T06:37:54.772Z,56.54
2023-12-12T06:40:23.678Z,56.29
2023-12-12T06:42:51.223Z,55.94
2023-12-12T06:45:19.360Z,55.50
2023-12-12T06:47:47.428Z,55.79
2023-12-12T06:50:15.088Z,55.62
2023-12-12T06:52:42.837Z,55.84
2023-12-12T06:55:10.474Z,56.03
2023-12-12T06:57:39.535Z,56.43
2023-12-12T07:00:08.806Z,55.41
2023-12-12T07:02:36.415Z,56.86
2023-12-12T07:05:05.596Z,56.70
2023-12-12T07:07:34.138Z,56.64
2023-12-12T07:10:03.764Z,57.50
2023-12-12T07:12:31.342Z,57.67
2023-12-12T07:15:00.242Z,57.00
2023-12-12T07:17:27.835Z,56.63
2023-12-12T07:19:55.819Z,56.71
2023-12-12T07:22:23.376Z,56.42
2023-12-12T07:24:50.851Z,56.24
2023-12-12T07:27:18.354Z,56.14
2023-12-12T07:29:45.905Z,56.58
2023-12-12T07:32:14.816Z,56.82
2023-12-12T07:34:42.328Z,56.84
2023-12-12T07:37:10.403Z,57.75
2023-12-12T07:39:37.915Z,58.46
2023-12-12T07:42:05.900Z,60.62
2023-12-12T07:44:33.417Z,59.55
2023-12-12T07:47:02.407Z,61.75
2023-12-12T07:49:31.450Z,60.48
2023-12-12T07:51:59.082Z,61.70
2023-12-12T07:54:26.831Z,60.88
2023-12-12T07:56:55.329Z,60.19
2023-12-12T07:59:22.875Z,59.65
2023-12-12T08:01:50.450Z,60.76
2023-12-12T08:04:18.082Z,59.66
2023-12-12T08:06:47.074Z,59.55
2023-12-12T08:09:14.809Z,59.36
2023-12-12T08:11:42.379Z,60.22
2023-12-12T08:14:13.056Z,60.05
2023-12-12T08:16:40.713Z,59.34
2023-12-12T08:19:08.472Z,59.01
2023-12-12T08:21:36.786Z,58.64
2023-12-12T08:24:08.933Z,59.31
2023-12-12T08:26:42.158Z,59.89
2023-12-12T08:29:10.391Z,60.60
2023-12-12T08:31:38.610Z,60.63
2023-12-12T08:34:06.660Z,59.78
2023-12-12T08:36:34.270Z,59.87
2023-12-12T08:39:02.184Z,59.37
2023-12-12T08:41:32.064Z,58.99
2023-12-12T08:44:00.108Z,59.24
2023-12-12T08:46:28.834Z,58.80
2023-12-12T08:48:56.836Z,58.78
2023-12-12T08:51:24.911Z,58.14
2023-12-12T08:53:53.118Z,57.99
2023-12-12T08:56:21.020Z,58.73
2023-12-12T08:58:51.523Z,58.37
2023-12-12T09:01:19.895Z,57.91
2023-12-12T09:03:48.458Z,58.22
2023-12-12T09:06:16.239Z,57.67
2023-12-12T09:08:47.078Z,57.14
2023-12-12T09:11:15.412Z,56.99
2023-12-12T09:13:43.649Z,56.90
2023-12-12T09:16:12.970Z,56.92
2023-12-12T09:18:40.644Z,56.65
2023-12-12T09:21:08.806Z,56.49
2023-12-12T09:23:40.483Z,56.64
2023-12-12T09:26:08.122Z,57.71
2023-12-12T09:28:35.689Z,57.61
2023-12-12T09:31:03.644Z,58.09
2023-12-12T09:33:32.693Z,58.21
2023-12-12T09:36:00.323Z,58.05
2023-12-12T09:38:28.067Z,58.05
2023-12-12T09:40:55.697Z,57.75
2023-12-12T09:43:27.709Z,57.81
2023-12-12T09:45:58.194Z,58.17
2023-12-12T09:48:26.393Z,57.97
2023-12-12T09:50:57.743Z,58.72
2023-12-12T09:53:26.189Z,58.37
2023-12-12T09:55:54.367Z,59.16
2023-12-12T09:58:22.182Z,59.02
2023-12-12T10:00:52.588Z,58.91
2023-12-12T10:03:20.382Z,59.54
2023-12-12T10:05:54.818Z,59.87
2023-12-12T10:08:24.843Z,60.08
2023-12-12T10:10:57.550Z,60.24
2023-12-12T10:13:25.085Z,60.95
2023-12-12T10:15:52.841Z,61.45
2023-12-12T10:18:23.233Z,62.04
2023-12-12T10:20:50.770Z,62.05
2023-12-12T10:23:18.322Z,62.01
2023-12-12T10:25:50.643Z,61.93
2023-12-12T10:28:19.050Z,62.71
2023-12-12T10:30:47.384Z,63.12
2023-12-12T10:33:15.554Z,65.33
2023-12-12T10:35:45.864Z,67.14
2023-12-12T10:38:13.397Z,68.68
2023-12-12T10:40:41.059Z,70.26
2023-12-12T10:43:10.985Z,70.33
2023-12-12T10:45:41.715Z,71.53
2023-12-12T10:48:11.021Z,71.01
2023-12-12T10:50:43.559Z,70.95
2023-12-12T10:53:11.744Z,70.55
2023-12-12T10:55:39.697Z,70.58
2023-12-12T10:58:09.060Z,70.44
2023-12-12T11:00:38.290Z,70.87
2023-12-12T11:03:06.060Z,70.65
2023-12-12T11:05:34.479Z,70.12
2023-12-12T11:08:04.823Z,70.02
2023-12-12T11:10:32.460Z,68.95
2023-12-12T11:13:02.809Z,69.65
2023-12-12T11:15:31.683Z,69.03
2023-12-12T11:18:01.555Z,68.90
2023-12-12T11:20:37.353Z,68.30
2023-12-12T11:23:06.559Z,68.74
2023-12-12T11:25:34.292Z,68.00
2023-12-12T11:28:03.899Z,66.99
2023-12-12T11:30:33.436Z,66.01
2023-12-12T11:33:02.695Z,66.41
2023-12-12T11:35:32.679Z,65.26
2023-12-12T11:38:03.469Z,63.84
2023-12-12T11:40:33.180Z,63.68
2023-12-12T11:43:19.134Z,62.56
2023-12-12T11:45:47.171Z,61.12
2023-12-12T11:48:17.230Z,61.98
2023-12-12T11:50:46.152Z,61.25
2023-12-12T11:53:13.734Z,62.39
2023-12-12T11:55:44.459Z,61.50
2023-12-12T11:58:12.480Z,60.63
2023-12-12T12:00:41.919Z,60.23
2023-12-12T12:03:10.615Z,59.52
2023-12-12T12:05:39.720Z,59.29
2023-12-12T12:08:08.612Z,59.38
2023-12-12T12:10:36.345Z,59.83
2023-12-12T12:13:03.916Z,60.09
2023-12-12T12:15:31.629Z,60.04
2023-12-12T12:17:59.416Z,61.53
2023-12-12T12:20:27.430Z,59.87
2023-12-12T12:22:56.599Z,59.47
2023-12-12T12:25:28.523Z,59.13
2023-12-12T12:27:57.248Z,58.50
2023-12-12T12:30:26.837Z,59.21
2023-12-12T12:33:06.072Z,59.88
2023-12-12T12:35:33.932Z,59.33
2023-12-12T12:38:03.682Z,60.18
2023-12-12T12:40:36.628Z,59.86
2023-12-12T12:43:13.798Z,60.10
2023-12-12T12:45:41.549Z,60.21
2023-12-12T12:48:09.340Z,60.41
2023-12-12T12:50:37.145Z,61.10
2023-12-12T12:53:06.092Z,61.96
2023-12-12T12:55:33.740Z,61.46
2023-12-12T12:58:01.889Z,62.57
2023-12-12T13:00:30.004Z,61.88
2023-12-12T13:02:58.058Z,61.58
2023-12-12T13:05:27.114Z,60.73
2023-12-12T13:07:55.259Z,59.82
2023-12-12T13:10:38.490Z,59.56
2023-12-12T13:13:11.295Z,59.07
2023-12-12T13:15:38.786Z,59.23
2023-12-12T13:18:06.538Z,58.42
2023-12-12T13:20:34.045Z,58.25
2023-12-12T13:23:01.651Z,57.48
2023-12-12T13:25:30.960Z,58.77
2023-12-12T13:27:58.550Z,58.66
2023-12-12T13:30:27.539Z,56.92
2023-12-12T13:32:55.353Z,56.10
2023-12-12T13:35:34.983Z,56.10
2023-12-12T13:38:05.142Z,56.57
2023-12-12T13:40:34.714Z,55.91
2023-12-12T13:43:02.697Z,55.22
2023-12-12T13:45:30.378Z,57.85
2023-12-12T13:47:58.196Z,57.98
2023-12-12T13:50:25.755Z,59.44
2023-12-12T13:52:54.084Z,58.46
2023-12-12T13:55:22.812Z,57.95
2023-12-12T13:57:51.822Z,57.52
2023-12-12T14:00:20.833Z,56.62
2023-12-12T14:02:49.468Z,55.76
2023-12-12T14:05:17.312Z,54.68
2023-12-12T14:07:45.330Z,54.07
2023-12-12T14:10:13.144Z,53.85
2023-12-12T14:12:40.704Z,53.30
2023-12-12T14:15:10.599Z,52.80
2023-12-12T14:17:39.438Z,54.15
2023-12-12T14:20:08.821Z,54.18
2023-12-12T14:22:36.911Z,54.78
2023-12-12T14:25:06.719Z,58.11
2023-12-12T14:27:34.261Z,59.95
2023-12-12T14:30:01.868Z,57.83
2023-12-12T14:32:31.091Z,57.52
2023-12-12T14:34:58.869Z,61.09
2023-12-12T14:37:27.231Z,58.77
2023-12-12T14:39:54.892Z,62.42
2023-12-12T14:42:24.382Z,60.35
2023-12-12T14:44:52.072Z,58.91
2023-12-12T14:47:20.105Z,57.64
2023-12-12T14:49:50.275Z,61.16
2023-12-12T14:52:17.900Z,60.76
2023-12-12T14:54:46.195Z,60.29
2023-12-12T14:57:20.118Z,58.73
2023-12-12T14:59:49.467Z,57.65
2023-12-12T15:02:16.984Z,56.49
2023-12-12T15:04:45.337Z,56.40
2023-12-12T15:07:14.285Z,55.84
2023-12-12T15:09:41.808Z,55.46
2023-12-12T15:12:09.682Z,55.24
2023-12-12T15:14:37.299Z,55.46
2023-12-12T15:17:05.239Z,54.83
2023-12-12T15:19:32.855Z,55.11
2023-12-12T15:22:00.478Z,54.59
2023-12-12T15:24:29.360Z,55.13
2023-12-12T15:26:56.902Z,54.88
2023-12-12T15:29:24.785Z,54.86
2023-12-12T15:31:52.372Z,55.26
2023-12-12T15:34:20.197Z,54.96
2023-12-12T15:36:47.790Z,56.05
2023-12-12T15:39:17.905Z,55.03
2023-12-12T15:41:46.869Z,55.59
2023-12-12T15:44:14.457Z,55.31
2023-12-12T15:46:42.091Z,55.26
2023-12-12T15:49:10.806Z,54.94
2023-12-12T15:51:38.982Z,55.23
2023-12-12T15:54:06.631Z,55.22
2023-12-12T15:56:35.068Z,57.25
2023-12-12T15:59:06.611Z,57.40
2023-12-12T16:01:36.806Z,58.56
2023-12-12T16:04:05.008Z,58.88
2023-12-12T16:06:32.768Z,58.62
2023-12-12T16:09:00.318Z,58.22
2023-12-12T16:11:27.854Z,57.50
2023-12-12T16:13:55.366Z,57.09
2023-12-12T16:16:25.096Z,56.93
2023-12-12T16:18:53.230Z,57.35
2023-12-12T16:21:20.837Z,57.79
2023-12-12T16:23:48.489Z,57.87
2023-12-12T16:26:16.011Z,57.71
2023-12-12T16:28:44.399Z,57.38
2023-12-12T16:31:12.107Z,57.12
2023-12-12T16:33:41.514Z,57.17
2023-12-12T16:36:10.601Z,58.25
2023-12-12T16:38:38.107Z,57.65
2023-12-12T16:41:06.107Z,57.45
2023-12-12T16:43:33.644Z,57.66
2023-12-12T16:46:01.291Z,57.62
2023-12-12T16:48:29.542Z,57.66
2023-12-12T16:50:58.663Z,57.67
2023-12-12T16:53:26.245Z,57.97
2023-12-12T16:55:53.849Z,58.22
2023-12-12T16:58:21.863Z,58.36
2023-12-12T17:00:50.227Z,58.26
2023-12-12T17:03:18.681Z,57.90
2023-12-12T17:05:46.315Z,57.76
2023-12-12T17:08:15.241Z,57.07
2023-12-12T17:10:43.422Z,57.20
2023-12-12T17:13:11.033Z,57.01
2023-12-12T17:15:39.882Z,57.13
2023-12-12T17:18:07.855Z,56.85
2023-12-12T17:20:35.659Z,57.28
2023-12-12T17:23:03.385Z,57.72
2023-12-12T17:25:32.298Z,57.48
2023-12-12T17:27:59.841Z,57.85
2023-12-12T17:30:27.370Z,57.79
2023-12-12T17:32:55.197Z,57.61
2023-12-12T17:35:22.711Z,57.36
2023-12-12T17:37:50.688Z,57.17
2023-12-12T17:40:18.505Z,57.58
2023-12-12T17:42:51.139Z,61.39
2023-12-12T17:45:19.997Z,61.65
2023-12-12T17:47:47.680Z,66.08
2023-12-12T17:50:16.791Z,64.05
2023-12-12T17:52:44.545Z,63.57
2023-12-12T17:55:13.231Z,63.91
2023-12-12T17:57:41.079Z,64.02
2023-12-12T18:00:13.326Z,63.80
2023-12-12T18:02:41.057Z,62.51
2023-12-12T18:05:11.666Z,61.57
2023-12-12T18:07:39.640Z,61.14
2023-12-12T18:10:08.677Z,61.05
2023-12-12T18:12:36.290Z,61.29
2023-12-12T18:15:04.104Z,61.08
2023-12-12T18:17:33.410Z,60.61
2023-12-12T18:20:01.245Z,60.55
2023-12-12T18:22:28.797Z,60.16
2023-12-12T18:24:58.683Z,59.57
2023-12-12T18:27:26.876Z,59.19
2023-12-12T18:29:54.385Z,58.42
2023-12-12T18:32:22.257Z,57.53
2023-12-12T18:34:51.272Z,57.58
2023-12-12T18:37:18.923Z,57.99
2023-12-12T18:39:48.976Z,57.29
2023-12-12T18:42:16.621Z,57.42
2023-12-12T18:44:44.211Z,57.31
2023-12-12T18:47:11.777Z,57.04
2023-12-12T18:49:40.532Z,56.93
2023-12-12T18:52:09.756Z,56.79
2023-12-12T18:54:37.472Z,57.00
2023-12-12T18:57:06.520Z,56.80
2023-12-12T18:59:34.249Z,57.30
2023-12-12T19:02:01.821Z,57.59
2023-12-12T19:04:30.586Z,57.30
2023-12-12T19:07:01.646Z,57.25
2023-12-12T19:09:30.703Z,57.48
2023-12-12T19:11:58.276Z,57.28
2023-12-12T19:14:26.192Z,57.71
2023-12-12T19:16:53.996Z,57.45
2023-12-12T19:19:24.621Z,57.82
2023-12-12T19:21:52.969Z,58.57
2023-12-12T19:24:20.630Z,58.58
2023-12-12T19:26:49.641Z,59.59
2023-12-12T19:29:20.338Z,60.33
2023-12-12T19:31:48.143Z,61.84
2023-12-12T19:34:15.990Z,62.64
2023-12-12T19:36:47.319Z,66.11
2023-12-12T19:39:15.763Z,65.69
2023-12-12T19:41:45.886Z,69.53
2023-12-12T19:44:15.046Z,72.02
2023-12-12T19:46:46.327Z,73.88
2023-12-12T19:49:15.449Z,71.93
2023-12-12T19:51:47.543Z,69.32
2023-12-12T19:54:15.126Z,67.33
2023-12-12T19:56:42.744Z,65.10
2023-12-12T19:59:15.647Z,63.18
2023-12-12T20:01:43.564Z,62.03
2023-12-12T20:04:14.271Z,61.20
2023-12-12T20:06:42.008Z,60.81
2023-12-12T20:09:11.810Z,60.22
2023-12-12T20:11:41.184Z,59.79
2023-12-12T20:14:09.162Z,59.67
2023-12-12T20:16:38.228Z,59.21
2023-12-12T20:19:12.196Z,59.12
2023-12-12T20:21:45.461Z,59.28
2023-12-12T20:24:14.290Z,59.56
2023-12-12T20:26:44.331Z,61.64
2023-12-12T20:29:12.769Z,60.74
2023-12-12T20:31:42.478Z,60.27
2023-12-12T20:34:13.392Z,59.72
2023-12-12T20:36:44.252Z,60.14
2023-12-12T20:39:14.841Z,60.65
2023-12-12T20:41:47.719Z,61.38
2023-12-12T20:44:15.452Z,64.37
2023-12-12T20:46:48.088Z,63.63
2023-12-12T20:49:15.964Z,62.64
2023-12-12T20:51:43.703Z,62.84
2023-12-12T20:54:15.502Z,63.05
2023-12-12T20:56:43.275Z,62.39
2023-12-12T20:59:12.506Z,61.15
2023-12-12T21:01:40.195Z,60.70
2023-12-12T21:04:10.568Z,60.83
2023-12-12T21:06:39.947Z,60.77
2023-12-12T21:09:07.634Z,60.73
2023-12-12T21:11:35.184Z,61.71
2023-12-12T21:14:03.657Z,61.32
2023-12-12T21:16:31.550Z,63.07
2023-12-12T21:18:59.717Z,62.27
2023-12-12T21:21:28.798Z,62.75
2023-12-12T21:23:57.786Z,62.63
2023-12-12T21:26:25.457Z,61.76
2023-12-12T21:28:53.051Z,63.30
2023-12-12T21:31:20.639Z,62.01
2023-12-12T21:33:48.175Z,62.36
2023-12-12T21:36:15.983Z,64.39
2023-12-12T21:38:47.064Z,63.22
2023-12-12T21:41:16.055Z,64.78
2023-12-12T21:43:43.665Z,65.29
2023-12-12T21:46:11.338Z,64.49
2023-12-12T21:48:38.966Z,62.69
2023-12-12T21:51:07.150Z,62.43
2023-12-12T21:53:34.865Z,64.46
2023-12-12T21:56:03.716Z,64.44
2023-12-12T21:58:31.331Z,64.78
2023-12-12T22:00:59.063Z,64.38
2023-12-12T22:03:26.717Z,66.87
2023-12-12T22:05:54.478Z,70.09
2023-12-12T22:08:22.254Z,75.25
2023-12-12T22:10:49.849Z,75.38
2023-12-12T22:13:18.920Z,75.53
2023-12-12T22:15:46.389Z,80.71
2023-12-12T22:18:16.258Z,79.38
2023-12-12T22:20:44.032Z,78.22
2023-12-12T22:23:11.545Z,80.30
2023-12-12T22:25:39.201Z,81.62
2023-12-12T22:28:07.089Z,78.02
2023-12-12T22:30:36.096Z,78.16
2023-12-12T22:33:04.919Z,75.42
2023-12-12T22:35:32.614Z,73.26
2023-12-12T22:38:00.717Z,72.27
2023-12-12T22:40:28.402Z,70.66
2023-12-12T22:42:56.085Z,70.44
2023-12-12T22:45:26.282Z,70.08
2023-12-12T22:47:55.476Z,69.64
2023-12-12T22:50:23.244Z,70.20
2023-12-12T22:52:51.461Z,71.14
2023-12-12T22:55:19.473Z,70.37
2023-12-12T22:57:47.192Z,70.04
2023-12-12T23:00:32.882Z,69.02
2023-12-12T23:03:01.918Z,70.59
2023-12-12T23:05:29.878Z,69.96
2023-12-12T23:07:58.819Z,70.44
2023-12-12T23:10:26.866Z,69.72
2023-12-12T23:12:54.688Z,69.95
2023-12-12T23:15:22.257Z,71.19
2023-12-12T23:17:49.928Z,70.97
2023-12-12T23:20:19.052Z,70.82
2023-12-12T23:22:46.763Z,72.61
2023-12-12T23:25:14.472Z,72.41
2023-12-12T23:27:42.792Z,71.26
2023-12-12T23:30:11.274Z,74.20
2023-12-12T23:32:39.227Z,75.87
2023-12-12T23:35:07.748Z,76.92
2023-12-12T23:37:39.542Z,76.12
2023-12-12T23:40:09.885Z,78.67
2023-12-12T23:42:37.639Z,75.44
2023-12-12T23:45:06.205Z,74.62
2023-12-12T23:47:35.203Z,75.70
2023-12-12T23:50:03.394Z,77.13
2023-12-12T23:52:31.227Z,73.47
2023-12-12T23:55:00.404Z,73.86
2023-12-12T23:57:29.476Z,74.99
